THA940 ZGGG-ZJSY
Flight info
| Callsign | THA940 |
|---|---|
| Flight time | 1h 1m |
| Altitude | 38100 |
| Route | VIBOS1 VIBOS DCT BOKAT DCT ADBIN DCT TOMUD DCT BIGRO DCT UPRIS UPRIS8YA |
| Aircraft | B789/H-SDE1E2E3FGHIJ2J3J4J5M1RWXY/LB1D1 |
Departure
| Time | 2026-05-05 01:09 |
|---|---|
| Airport | Guangzhou Baiyun International Airport (ZGGG) |
Arrival
| Time | 2026-05-05 02:11 |
|---|---|
| Airport | Sanya Phoenix International Airport (ZJSY) |
| Time | Latitude | Longitude | Altitude | Speed | Heading |
|---|---|---|---|---|---|
| 2026-05-05 00:47 | 23.38928 | 113.29272 | 60 ft | 0 kts | 1° |
| 2026-05-05 00:59 | 23.38927 | 113.29272 | 60 ft | 1 kts | 1° |
| 2026-05-05 00:59 | 23.38912 | 113.29272 | 60 ft | 2 kts | 1° |
| 2026-05-05 01:00 | 23.38907 | 113.29272 | 60 ft | 2 kts | 1° |
| 2026-05-05 01:00 | 23.38894 | 113.29271 | 60 ft | 2 kts | 1° |
| 2026-05-05 01:00 | 23.38884 | 113.29271 | 60 ft | 1 kts | 1° |
| 2026-05-05 01:00 | 23.38870 | 113.29274 | 60 ft | 2 kts | 322° |
| 2026-05-05 01:01 | 23.38860 | 113.29286 | 60 ft | 2 kts | 288° |
| 2026-05-05 01:01 | 23.38857 | 113.29295 | 60 ft | 0 kts | 269° |
| 2026-05-05 01:01 | 23.38858 | 113.29299 | 60 ft | 0 kts | 269° |
| 2026-05-05 01:03 | 23.38858 | 113.29286 | 60 ft | 3 kts | 272° |
| 2026-05-05 01:03 | 23.38861 | 113.29248 | 60 ft | 6 kts | 279° |
| 2026-05-05 01:04 | 23.38868 | 113.29185 | 60 ft | 10 kts | 272° |
| 2026-05-05 01:04 | 23.38882 | 113.29040 | 60 ft | 9 kts | 284° |
| 2026-05-05 01:04 | 23.38885 | 113.28975 | 60 ft | 9 kts | 246° |
| 2026-05-05 01:05 | 23.38823 | 113.28938 | 60 ft | 11 kts | 196° |
| 2026-05-05 01:05 | 23.38754 | 113.28918 | 60 ft | 13 kts | 194° |
| 2026-05-05 01:05 | 23.38662 | 113.28893 | 60 ft | 15 kts | 193° |
| 2026-05-05 01:05 | 23.38550 | 113.28863 | 60 ft | 17 kts | 195° |
| 2026-05-05 01:06 | 23.38433 | 113.28831 | 60 ft | 17 kts | 194° |
| 2026-05-05 01:06 | 23.38321 | 113.28800 | 60 ft | 16 kts | 194° |
| 2026-05-05 01:06 | 23.38212 | 113.28771 | 60 ft | 15 kts | 194° |
| 2026-05-05 01:06 | 23.38108 | 113.28743 | 60 ft | 14 kts | 193° |
| 2026-05-05 01:07 | 23.38001 | 113.28715 | 60 ft | 16 kts | 194° |
| 2026-05-05 01:07 | 23.37883 | 113.28682 | 60 ft | 18 kts | 194° |
| 2026-05-05 01:07 | 23.37755 | 113.28648 | 60 ft | 19 kts | 194° |
| 2026-05-05 01:07 | 23.37664 | 113.28608 | 60 ft | 12 kts | 236° |
| 2026-05-05 01:08 | 23.37670 | 113.28514 | 60 ft | 12 kts | 282° |
| 2026-05-05 01:08 | 23.37690 | 113.28424 | 60 ft | 11 kts | 285° |
| 2026-05-05 01:08 | 23.37720 | 113.28368 | 60 ft | 7 kts | 341° |
| 2026-05-05 01:08 | 23.37796 | 113.28379 | 60 ft | 19 kts | 13° |
| 2026-05-05 01:09 | 23.38234 | 113.28497 | 60 ft | 110 kts | 14° |
| 2026-05-05 01:09 | 23.39237 | 113.28767 | 194 ft | 178 kts | 14° |
| 2026-05-05 01:09 | 23.40377 | 113.29284 | 1174 ft | 182 kts | 44° |
| 2026-05-05 01:09 | 23.41032 | 113.30399 | 2205 ft | 183 kts | 70° |
| 2026-05-05 01:10 | 23.41208 | 113.31726 | 3211 ft | 175 kts | 94° |
| 2026-05-05 01:10 | 23.41035 | 113.33006 | 4137 ft | 176 kts | 99° |
| 2026-05-05 01:10 | 23.40834 | 113.34290 | 5057 ft | 176 kts | 99° |
| 2026-05-05 01:10 | 23.40581 | 113.35558 | 5926 ft | 176 kts | 114° |
| 2026-05-05 01:11 | 23.39921 | 113.36672 | 6738 ft | 180 kts | 127° |
| 2026-05-05 01:11 | 23.39142 | 113.37740 | 7532 ft | 185 kts | 128° |
| 2026-05-05 01:11 | 23.38356 | 113.38827 | 8354 ft | 187 kts | 127° |
| 2026-05-05 01:11 | 23.37582 | 113.39941 | 9177 ft | 188 kts | 126° |
| 2026-05-05 01:12 | 23.36824 | 113.41077 | 9985 ft | 188 kts | 124° |
| 2026-05-05 01:12 | 23.36079 | 113.42227 | 10767 ft | 188 kts | 128° |
| 2026-05-05 01:12 | 23.35061 | 113.43062 | 11466 ft | 189 kts | 163° |
| 2026-05-05 01:12 | 23.33804 | 113.43366 | 12129 ft | 184 kts | 173° |
| 2026-05-05 01:13 | 23.32515 | 113.43516 | 12732 ft | 189 kts | 173° |
| 2026-05-05 01:13 | 23.31215 | 113.43688 | 13367 ft | 192 kts | 172° |
| 2026-05-05 01:13 | 23.29912 | 113.43877 | 14005 ft | 193 kts | 171° |
| 2026-05-05 01:13 | 23.28581 | 113.44082 | 14646 ft | 194 kts | 171° |
| 2026-05-05 01:14 | 23.27273 | 113.44357 | 15255 ft | 194 kts | 167° |
| 2026-05-05 01:14 | 23.25952 | 113.44669 | 15853 ft | 195 kts | 167° |
| 2026-05-05 01:14 | 23.24641 | 113.44984 | 16454 ft | 194 kts | 167° |
| 2026-05-05 01:14 | 23.23291 | 113.45315 | 16834 ft | 207 kts | 166° |
| 2026-05-05 01:15 | 23.21867 | 113.45700 | 17240 ft | 217 kts | 164° |
| 2026-05-05 01:15 | 23.20392 | 113.46149 | 17716 ft | 224 kts | 162° |
| 2026-05-05 01:15 | 23.18873 | 113.46677 | 18046 ft | 238 kts | 160° |
| 2026-05-05 01:15 | 23.17271 | 113.47193 | 18428 ft | 248 kts | 179° |
| 2026-05-05 01:16 | 23.15782 | 113.46673 | 19534 ft | 220 kts | 218° |
| 2026-05-05 01:16 | 23.14688 | 113.45447 | 19661 ft | 243 kts | 231° |
| 2026-05-05 01:16 | 23.13541 | 113.43954 | 19746 ft | 269 kts | 229° |
| 2026-05-05 01:16 | 23.12218 | 113.42340 | 19703 ft | 300 kts | 227° |
| 2026-05-05 01:17 | 23.10737 | 113.40614 | 19786 ft | 326 kts | 226° |
| 2026-05-05 01:17 | 23.09106 | 113.38773 | 19843 ft | 352 kts | 225° |
| 2026-05-05 01:17 | 23.07292 | 113.36873 | 19899 ft | 378 kts | 223° |
| 2026-05-05 01:17 | 23.05336 | 113.34837 | 20332 ft | 392 kts | 223° |
| 2026-05-05 01:18 | 23.03384 | 113.32808 | 21140 ft | 395 kts | 223° |
| 2026-05-05 01:18 | 23.01400 | 113.30746 | 21928 ft | 398 kts | 223° |
| 2026-05-05 01:18 | 22.99408 | 113.28674 | 22632 ft | 402 kts | 223° |
| 2026-05-05 01:18 | 22.97388 | 113.26575 | 23309 ft | 406 kts | 223° |
| 2026-05-05 01:19 | 22.95313 | 113.24418 | 23986 ft | 411 kts | 223° |
| 2026-05-05 01:19 | 22.93253 | 113.22278 | 24635 ft | 415 kts | 223° |
| 2026-05-05 01:19 | 22.91152 | 113.20095 | 25272 ft | 419 kts | 223° |
| 2026-05-05 01:19 | 22.89066 | 113.17929 | 25881 ft | 423 kts | 223° |
| 2026-05-05 01:20 | 22.86934 | 113.15717 | 26481 ft | 427 kts | 223° |
| 2026-05-05 01:20 | 22.84788 | 113.13490 | 27065 ft | 431 kts | 223° |
| 2026-05-05 01:20 | 22.82619 | 113.11241 | 27635 ft | 434 kts | 223° |
| 2026-05-05 01:20 | 22.80432 | 113.08975 | 28191 ft | 438 kts | 223° |
| 2026-05-05 01:21 | 22.78203 | 113.06665 | 28773 ft | 441 kts | 223° |
| 2026-05-05 01:21 | 22.76010 | 113.04394 | 29451 ft | 440 kts | 223° |
| 2026-05-05 01:21 | 22.73787 | 113.02094 | 30167 ft | 439 kts | 223° |
| 2026-05-05 01:21 | 22.71594 | 112.99824 | 30845 ft | 437 kts | 223° |
| 2026-05-05 01:22 | 22.69419 | 112.97576 | 31481 ft | 436 kts | 223° |
| 2026-05-05 01:22 | 22.67960 | 112.96074 | 31729 ft | 440 kts | 224° |
| 2026-05-05 01:22 | 22.65696 | 112.93739 | 31904 ft | 449 kts | 224° |
| 2026-05-05 01:22 | 22.63442 | 112.91407 | 32416 ft | 450 kts | 224° |
| 2026-05-05 01:23 | 22.61195 | 112.89085 | 33010 ft | 448 kts | 224° |
| 2026-05-05 01:23 | 22.58964 | 112.86784 | 33560 ft | 447 kts | 224° |
| 2026-05-05 01:23 | 22.56715 | 112.84463 | 34067 ft | 446 kts | 224° |
| 2026-05-05 01:23 | 22.54462 | 112.82142 | 34554 ft | 446 kts | 224° |
| 2026-05-05 01:24 | 22.52241 | 112.79855 | 35024 ft | 445 kts | 224° |
| 2026-05-05 01:24 | 22.50000 | 112.77547 | 35493 ft | 445 kts | 224° |
| 2026-05-05 01:24 | 22.47779 | 112.75261 | 35954 ft | 443 kts | 224° |
| 2026-05-05 01:24 | 22.45554 | 112.72972 | 36394 ft | 442 kts | 224° |
| 2026-05-05 01:25 | 22.43321 | 112.70677 | 36789 ft | 442 kts | 224° |
| 2026-05-05 01:25 | 22.41091 | 112.68385 | 37155 ft | 442 kts | 224° |
| 2026-05-05 01:25 | 22.38883 | 112.66116 | 37505 ft | 442 kts | 224° |
| 2026-05-05 01:25 | 22.36651 | 112.63824 | 37849 ft | 442 kts | 224° |
| 2026-05-05 01:26 | 22.34432 | 112.61548 | 38012 ft | 445 kts | 224° |
| 2026-05-05 01:26 | 22.32182 | 112.59238 | 38014 ft | 444 kts | 224° |
| 2026-05-05 01:26 | 22.31429 | 112.58466 | 38018 ft | 443 kts | 224° |
| 2026-05-05 01:27 | 22.23252 | 112.50088 | 38021 ft | 441 kts | 224° |
| 2026-05-05 01:27 | 22.18826 | 112.45559 | 38021 ft | 441 kts | 224° |
| 2026-05-05 01:28 | 22.14352 | 112.40985 | 38034 ft | 451 kts | 224° |
| 2026-05-05 01:28 | 22.09730 | 112.36237 | 38032 ft | 469 kts | 227° |
| 2026-05-05 01:29 | 22.04965 | 112.31353 | 38036 ft | 478 kts | 222° |
| 2026-05-05 01:29 | 22.00112 | 112.26517 | 38017 ft | 476 kts | 223° |
| 2026-05-05 01:30 | 21.95300 | 112.21645 | 38020 ft | 475 kts | 223° |
| 2026-05-05 01:30 | 21.90578 | 112.16698 | 38016 ft | 475 kts | 225° |
| 2026-05-05 01:31 | 21.85729 | 112.11829 | 38017 ft | 475 kts | 223° |
| 2026-05-05 01:31 | 21.80882 | 112.06995 | 38017 ft | 475 kts | 223° |
| 2026-05-05 01:32 | 21.76025 | 112.02152 | 38017 ft | 475 kts | 223° |
| 2026-05-05 01:32 | 21.71140 | 111.97408 | 38024 ft | 475 kts | 220° |
| 2026-05-05 01:33 | 21.66053 | 111.92825 | 38018 ft | 475 kts | 220° |
| 2026-05-05 01:33 | 21.61006 | 111.88277 | 38018 ft | 475 kts | 220° |
| 2026-05-05 01:34 | 21.56667 | 111.84346 | 37983 ft | 462 kts | 220° |
| 2026-05-05 01:34 | 21.54252 | 111.82141 | 37982 ft | 449 kts | 220° |
| 2026-05-05 01:34 | 21.51850 | 111.79948 | 38005 ft | 454 kts | 220° |
| 2026-05-05 01:35 | 21.46991 | 111.75511 | 38000 ft | 460 kts | 220° |
| 2026-05-05 01:35 | 21.42156 | 111.71083 | 37997 ft | 459 kts | 220° |
| 2026-05-05 01:36 | 21.37300 | 111.66664 | 37998 ft | 458 kts | 220° |
| 2026-05-05 01:36 | 21.32420 | 111.62244 | 37998 ft | 458 kts | 220° |
| 2026-05-05 01:37 | 21.27562 | 111.57833 | 37998 ft | 458 kts | 220° |
| 2026-05-05 01:37 | 21.22688 | 111.53407 | 37998 ft | 458 kts | 220° |
| 2026-05-05 01:38 | 21.17820 | 111.48990 | 37998 ft | 458 kts | 220° |
| 2026-05-05 01:38 | 21.12975 | 111.44595 | 37998 ft | 458 kts | 220° |
| 2026-05-05 01:39 | 21.08123 | 111.40198 | 37998 ft | 458 kts | 220° |
| 2026-05-05 01:39 | 21.03245 | 111.35782 | 37998 ft | 458 kts | 220° |
| 2026-05-05 01:40 | 20.98370 | 111.31372 | 37998 ft | 458 kts | 219° |
| 2026-05-05 01:40 | 20.93499 | 111.26970 | 37998 ft | 458 kts | 219° |
| 2026-05-05 01:41 | 20.88632 | 111.22575 | 37998 ft | 458 kts | 219° |
| 2026-05-05 01:41 | 20.83789 | 111.18206 | 37998 ft | 458 kts | 219° |
| 2026-05-05 01:42 | 20.78919 | 111.13816 | 37998 ft | 458 kts | 219° |
| 2026-05-05 01:42 | 20.74053 | 111.09432 | 37998 ft | 458 kts | 219° |
| 2026-05-05 01:43 | 20.69204 | 111.05070 | 37998 ft | 458 kts | 219° |
| 2026-05-05 01:43 | 20.64347 | 111.00703 | 37998 ft | 458 kts | 219° |
| 2026-05-05 01:44 | 20.59462 | 110.96314 | 37998 ft | 458 kts | 219° |
| 2026-05-05 01:44 | 20.54615 | 110.91964 | 37998 ft | 458 kts | 219° |
| 2026-05-05 01:45 | 20.49755 | 110.87606 | 37998 ft | 458 kts | 219° |
| 2026-05-05 01:45 | 20.44886 | 110.83244 | 37998 ft | 458 kts | 219° |
| 2026-05-05 01:46 | 20.40013 | 110.78880 | 37998 ft | 458 kts | 219° |
| 2026-05-05 01:46 | 20.35143 | 110.74525 | 37998 ft | 458 kts | 219° |
| 2026-05-05 01:47 | 20.30269 | 110.70168 | 37998 ft | 458 kts | 219° |
| 2026-05-05 01:47 | 20.25384 | 110.65807 | 37998 ft | 458 kts | 219° |
| 2026-05-05 01:48 | 20.20513 | 110.61461 | 37998 ft | 458 kts | 219° |
| 2026-05-05 01:48 | 20.15637 | 110.57114 | 37998 ft | 458 kts | 219° |
| 2026-05-05 01:49 | 20.10770 | 110.52779 | 37998 ft | 458 kts | 219° |
| 2026-05-05 01:49 | 20.05877 | 110.48425 | 37998 ft | 458 kts | 219° |
| 2026-05-05 01:50 | 20.00998 | 110.44087 | 37998 ft | 458 kts | 219° |
| 2026-05-05 01:50 | 19.96129 | 110.39761 | 37998 ft | 458 kts | 219° |
| 2026-05-05 01:51 | 19.91251 | 110.35430 | 37998 ft | 458 kts | 219° |
| 2026-05-05 01:51 | 19.86378 | 110.31108 | 37998 ft | 458 kts | 219° |
| 2026-05-05 01:52 | 19.81493 | 110.26779 | 37998 ft | 458 kts | 219° |
| 2026-05-05 01:52 | 19.76604 | 110.22450 | 37998 ft | 458 kts | 219° |
| 2026-05-05 01:53 | 19.71734 | 110.18142 | 37998 ft | 458 kts | 219° |
| 2026-05-05 01:53 | 19.66851 | 110.13824 | 37998 ft | 458 kts | 219° |
| 2026-05-05 01:54 | 19.61939 | 110.09486 | 37996 ft | 459 kts | 219° |
| 2026-05-05 01:54 | 19.59518 | 110.07349 | 37802 ft | 453 kts | 219° |
| 2026-05-05 01:54 | 19.57125 | 110.05237 | 37571 ft | 440 kts | 219° |
| 2026-05-05 01:55 | 19.55372 | 110.03690 | 37398 ft | 431 kts | 219° |
| 2026-05-05 01:55 | 19.53177 | 110.01755 | 37162 ft | 420 kts | 219° |
| 2026-05-05 01:55 | 19.50933 | 109.99777 | 36901 ft | 419 kts | 219° |
| 2026-05-05 01:55 | 19.48684 | 109.97796 | 36659 ft | 421 kts | 219° |
| 2026-05-05 01:56 | 19.46436 | 109.95816 | 36417 ft | 423 kts | 219° |
| 2026-05-05 01:56 | 19.44178 | 109.93829 | 36172 ft | 424 kts | 219° |
| 2026-05-05 01:56 | 19.41904 | 109.91827 | 35922 ft | 424 kts | 219° |
| 2026-05-05 01:56 | 19.39640 | 109.89835 | 35674 ft | 424 kts | 219° |
| 2026-05-05 01:57 | 19.37377 | 109.87846 | 35427 ft | 424 kts | 219° |
| 2026-05-05 01:57 | 19.35099 | 109.85843 | 35178 ft | 425 kts | 219° |
| 2026-05-05 01:57 | 19.32842 | 109.83858 | 34932 ft | 425 kts | 219° |
| 2026-05-05 01:57 | 19.30566 | 109.81860 | 34684 ft | 426 kts | 219° |
| 2026-05-05 01:58 | 19.28287 | 109.79858 | 34436 ft | 426 kts | 219° |
| 2026-05-05 01:58 | 19.25978 | 109.77891 | 34189 ft | 427 kts | 213° |
| 2026-05-05 01:58 | 19.23382 | 109.76406 | 33975 ft | 427 kts | 206° |
| 2026-05-05 01:58 | 19.20691 | 109.75026 | 33695 ft | 429 kts | 205° |
| 2026-05-05 01:59 | 19.18030 | 109.73693 | 33330 ft | 429 kts | 205° |
| 2026-05-05 01:59 | 19.15325 | 109.72356 | 32956 ft | 429 kts | 205° |
| 2026-05-05 01:59 | 19.12592 | 109.71018 | 32580 ft | 429 kts | 204° |
| 2026-05-05 01:59 | 19.09912 | 109.69714 | 32213 ft | 430 kts | 204° |
| 2026-05-05 02:00 | 19.07191 | 109.68394 | 31841 ft | 431 kts | 204° |
| 2026-05-05 02:00 | 19.04466 | 109.67077 | 31469 ft | 431 kts | 204° |
| 2026-05-05 02:00 | 19.01718 | 109.65750 | 31095 ft | 432 kts | 204° |
| 2026-05-05 02:00 | 18.98972 | 109.64427 | 30721 ft | 433 kts | 204° |
| 2026-05-05 02:01 | 18.96263 | 109.63123 | 30354 ft | 433 kts | 204° |
| 2026-05-05 02:01 | 18.93501 | 109.61794 | 29979 ft | 434 kts | 204° |
| 2026-05-05 02:01 | 18.90722 | 109.60458 | 29603 ft | 435 kts | 204° |
| 2026-05-05 02:01 | 18.87970 | 109.59135 | 29231 ft | 436 kts | 204° |
| 2026-05-05 02:02 | 18.85181 | 109.57796 | 28854 ft | 436 kts | 204° |
| 2026-05-05 02:02 | 18.82406 | 109.56464 | 28480 ft | 437 kts | 204° |
| 2026-05-05 02:02 | 18.79647 | 109.55140 | 28109 ft | 438 kts | 204° |
| 2026-05-05 02:02 | 18.76880 | 109.53812 | 27736 ft | 438 kts | 204° |
| 2026-05-05 02:03 | 18.74101 | 109.52470 | 27363 ft | 439 kts | 204° |
| 2026-05-05 02:03 | 18.71335 | 109.51135 | 26992 ft | 440 kts | 204° |
| 2026-05-05 02:03 | 18.68553 | 109.49799 | 26615 ft | 438 kts | 204° |
| 2026-05-05 02:03 | 18.65790 | 109.48473 | 26237 ft | 436 kts | 204° |
| 2026-05-05 02:04 | 18.63063 | 109.47166 | 25862 ft | 433 kts | 204° |
| 2026-05-05 02:04 | 18.60308 | 109.45847 | 25480 ft | 430 kts | 204° |
| 2026-05-05 02:04 | 18.57610 | 109.44555 | 25104 ft | 428 kts | 204° |
| 2026-05-05 02:04 | 18.54899 | 109.43260 | 24726 ft | 425 kts | 204° |
| 2026-05-05 02:05 | 18.52222 | 109.41978 | 24348 ft | 423 kts | 204° |
| 2026-05-05 02:05 | 18.49619 | 109.40654 | 22470 ft | 446 kts | 206° |
| 2026-05-05 02:05 | 18.47209 | 109.38702 | 17913 ft | 492 kts | 227° |
| 2026-05-05 02:05 | 18.45264 | 109.35901 | 15870 ft | 464 kts | 234° |
| 2026-05-05 02:06 | 18.43377 | 109.33298 | 13124 ft | 462 kts | 230° |
| 2026-05-05 02:06 | 18.41499 | 109.30850 | 12987 ft | 399 kts | 231° |
| 2026-05-05 02:06 | 18.39868 | 109.28688 | 12950 ft | 351 kts | 236° |
| 2026-05-05 02:06 | 18.38945 | 109.26506 | 12960 ft | 310 kts | 253° |
| 2026-05-05 02:07 | 18.38440 | 109.24412 | 12956 ft | 277 kts | 257° |
| 2026-05-05 02:07 | 18.38082 | 109.22475 | 12997 ft | 267 kts | 259° |
| 2026-05-05 02:07 | 18.37560 | 109.20628 | 12988 ft | 266 kts | 236° |
| 2026-05-05 02:07 | 18.36171 | 109.19407 | 13040 ft | 266 kts | 200° |
| 2026-05-05 02:08 | 18.34334 | 109.19169 | 12472 ft | 284 kts | 176° |
| 2026-05-05 02:08 | 18.32867 | 109.19447 | 9979 ft | 356 kts | 160° |
| 2026-05-05 02:08 | 18.30802 | 109.20966 | 6512 ft | 416 kts | 128° |
| 2026-05-05 02:08 | 18.29631 | 109.23601 | 5749 ft | 387 kts | 106° |
| 2026-05-05 02:09 | 18.29275 | 109.26260 | 4794 ft | 352 kts | 94° |
| 2026-05-05 02:09 | 18.29092 | 109.28744 | 3321 ft | 341 kts | 94° |
| 2026-05-05 02:09 | 18.28972 | 109.31137 | 2561 ft | 310 kts | 89° |
| 2026-05-05 02:09 | 18.29210 | 109.33281 | 1760 ft | 294 kts | 79° |
| 2026-05-05 02:10 | 18.29539 | 109.35371 | 866 ft | 282 kts | 82° |
| 2026-05-05 02:10 | 18.29780 | 109.37322 | 555 ft | 255 kts | 82° |
| 2026-05-05 02:10 | 18.30007 | 109.39089 | 259 ft | 234 kts | 82° |
| 2026-05-05 02:10 | 18.30233 | 109.40707 | 105 ft | 205 kts | 81° |
| 2026-05-05 02:11 | 18.30363 | 109.41775 | 105 ft | 62 kts | 82° |
| 2026-05-05 02:11 | 18.30416 | 109.42052 | 105 ft | 18 kts | 68° |
| 2026-05-05 02:11 | 18.30475 | 109.42155 | 105 ft | 16 kts | 57° |
| 2026-05-05 02:11 | 18.30604 | 109.42221 | 105 ft | 45 kts | 337° |
| 2026-05-05 02:12 | 18.30843 | 109.42093 | 117 ft | 1 kts | 315° |